createdAt,value
2018-01-25T00:00:46.241Z,3.93
2018-01-25T00:03:13.754Z,5.37
2018-01-25T00:05:41.943Z,4.90
2018-01-25T00:08:09.410Z,3.43
2018-01-25T00:10:36.883Z,6.90
2018-01-25T00:13:04.344Z,3.43
2018-01-25T00:15:31.801Z,2.97
2018-01-25T00:17:59.279Z,2.93
2018-01-25T00:20:27.509Z,4.57
2018-01-25T00:22:54.972Z,3.97
2018-01-25T00:25:22.423Z,5.80
2018-01-25T00:27:49.892Z,6.93
2018-01-25T00:30:17.363Z,4.80
2018-01-25T00:32:44.816Z,4.67
2018-01-25T00:35:12.285Z,3.43
2018-01-25T00:37:39.735Z,3.60
2018-01-25T00:40:07.199Z,5.10
2018-01-25T00:42:34.667Z,3.90
2018-01-25T00:45:02.907Z,5.73
2018-01-25T00:47:30.363Z,4.60
2018-01-25T00:49:57.830Z,5.10
2018-01-25T00:52:25.280Z,4.83
2018-01-25T00:54:52.747Z,5.97
2018-01-25T00:57:20.200Z,4.60
2018-01-25T00:59:47.675Z,5.40
2018-01-25T01:02:15.124Z,4.00
2018-01-25T01:04:42.600Z,3.60
2018-01-25T01:07:10.056Z,4.17
2018-01-25T01:09:38.291Z,4.43
2018-01-25T01:12:05.749Z,4.03
2018-01-25T01:14:33.220Z,5.03
2018-01-25T01:17:00.671Z,5.40
2018-01-25T01:19:28.141Z,4.73
2018-01-25T01:21:55.609Z,5.83
2018-01-25T01:24:23.080Z,5.73
2018-01-25T01:26:51.311Z,4.70
2018-01-25T01:29:18.775Z,3.90
2018-01-25T01:31:46.228Z,4.33
2018-01-25T01:34:13.697Z,5.20
2018-01-25T01:36:41.148Z,4.43
2018-01-25T01:39:09.388Z,5.77
2018-01-25T01:41:36.861Z,5.23
2018-01-25T01:44:04.323Z,5.60
2018-01-25T01:46:31.788Z,4.63
2018-01-25T01:48:59.244Z,4.80
2018-01-25T01:51:26.707Z,5.90
2018-01-25T01:53:54.174Z,4.30
2018-01-25T01:56:21.635Z,5.37
2018-01-25T01:58:49.090Z,6.50
2018-01-25T02:01:16.558Z,6.37
2018-01-25T02:03:44.008Z,6.37
2018-01-25T02:06:11.472Z,9.17
2018-01-25T02:08:38.923Z,6.33
2018-01-25T02:11:06.391Z,4.27
2018-01-25T02:13:33.855Z,5.80
2018-01-25T02:16:01.324Z,5.00
2018-01-25T02:18:29.539Z,6.10
2018-01-25T02:20:57.010Z,6.90
2018-01-25T02:23:25.243Z,4.70
2018-01-25T02:25:53.468Z,9.53
2018-01-25T02:28:20.924Z,6.23
2018-01-25T02:30:48.388Z,5.77
2018-01-25T02:33:15.843Z,5.23
2018-01-25T02:35:43.311Z,6.47
2018-01-25T02:38:10.756Z,4.40
2018-01-25T02:40:38.226Z,4.53
2018-01-25T02:43:05.679Z,7.70
2018-01-25T02:45:33.150Z,5.23
2018-01-25T02:48:00.607Z,9.80
2018-01-25T02:50:28.069Z,5.30
2018-01-25T02:52:55.531Z,7.33
2018-01-25T02:55:24.157Z,7.43
2018-01-25T02:57:51.711Z,5.60
2018-01-25T03:00:19.160Z,6.33
2018-01-25T03:02:46.625Z,6.53
2018-01-25T03:05:14.080Z,6.20
2018-01-25T03:07:41.540Z,5.20
2018-01-25T03:10:08.991Z,6.20
2018-01-25T03:12:36.476Z,6.60
2018-01-25T03:15:03.928Z,6.80
2018-01-25T03:17:31.387Z,7.33
2018-01-25T03:19:58.847Z,6.50
2018-01-25T03:22:26.313Z,5.20
2018-01-25T03:24:53.772Z,8.13
2018-01-25T03:27:21.249Z,8.10
2018-01-25T03:29:48.707Z,7.30
2018-01-25T03:32:16.173Z,5.03
2018-01-25T03:34:43.628Z,5.47
2018-01-25T03:37:11.088Z,5.87
2018-01-25T03:39:38.547Z,5.33
2018-01-25T03:42:06.008Z,8.30
2018-01-25T03:44:34.234Z,7.23
2018-01-25T03:47:01.709Z,7.43
2018-01-25T03:49:29.167Z,7.17
2018-01-25T03:51:56.632Z,6.33
2018-01-25T03:54:24.091Z,5.83
2018-01-25T03:56:51.559Z,5.00
2018-01-25T03:59:19.011Z,10.53
2018-01-25T04:01:46.488Z,8.90
2018-01-25T04:04:14.710Z,5.97
2018-01-25T04:06:42.173Z,6.53
2018-01-25T04:09:09.628Z,8.27
2018-01-25T04:11:37.084Z,6.40
2018-01-25T04:14:04.547Z,4.97
2018-01-25T04:16:32.007Z,10.47
2018-01-25T04:18:59.475Z,6.70
2018-01-25T04:21:27.696Z,5.20
2018-01-25T04:23:55.163Z,8.67
2018-01-25T04:26:22.629Z,6.30
2018-01-25T04:28:50.088Z,7.70
2018-01-25T04:31:17.549Z,5.77
2018-01-25T04:33:45.013Z,7.80
2018-01-25T04:36:12.475Z,9.30
2018-01-25T04:38:39.932Z,6.73
2018-01-25T04:41:07.399Z,4.57
2018-01-25T04:43:34.867Z,7.30
2018-01-25T04:46:02.324Z,7.13
2018-01-25T04:48:29.784Z,6.43
2018-01-25T04:50:57.245Z,4.50
2018-01-25T04:53:24.711Z,6.13
2018-01-25T04:55:52.164Z,7.27
2018-01-25T04:58:19.636Z,10.13
2018-01-25T05:00:47.091Z,7.37
2018-01-25T05:03:14.565Z,7.60
2018-01-25T05:05:42.780Z,8.00
2018-01-25T05:08:10.252Z,7.50
2018-01-25T05:10:37.712Z,5.40
2018-01-25T05:13:05.178Z,9.30
2018-01-25T05:15:32.631Z,6.20
2018-01-25T05:18:00.075Z,7.80
2018-01-25T05:20:27.572Z,10.43
2018-01-25T05:22:55.026Z,10.33
2018-01-25T05:25:22.897Z,8.70
2018-01-25T05:27:50.342Z,6.70
2018-01-25T05:30:17.812Z,7.47
2018-01-25T05:32:45.343Z,7.33
2018-01-25T05:35:12.799Z,7.60
2018-01-25T05:37:40.250Z,7.17
2018-01-25T05:40:07.720Z,7.23
2018-01-25T05:42:35.176Z,7.57
2018-01-25T05:45:02.650Z,5.80
2018-01-25T05:47:30.109Z,9.43
2018-01-25T05:49:57.585Z,6.37
2018-01-25T05:52:27.123Z,5.70
2018-01-25T05:55:01.787Z,6.70
2018-01-25T05:57:29.272Z,10.47
2018-01-25T05:59:57.511Z,7.43
2018-01-25T06:02:24.976Z,6.43
2018-01-25T06:04:52.443Z,7.73
2018-01-25T06:07:20.710Z,6.40
2018-01-25T06:09:48.185Z,8.47
2018-01-25T06:12:15.636Z,7.07
2018-01-25T06:14:43.109Z,11.63
2018-01-25T06:17:11.336Z,8.47
2018-01-25T06:19:39.798Z,7.17
2018-01-25T06:22:07.282Z,8.70
2018-01-25T06:24:34.794Z,7.73
2018-01-25T06:27:02.248Z,8.03
2018-01-25T06:29:30.495Z,6.00
2018-01-25T06:32:03.398Z,7.43
2018-01-25T06:34:31.637Z,8.40
2018-01-25T06:36:59.100Z,8.00
2018-01-25T06:39:26.572Z,6.23
2018-01-25T06:41:54.088Z,8.10
2018-01-25T06:44:21.606Z,5.70
2018-01-25T06:46:49.852Z,12.60
2018-01-25T06:49:17.308Z,8.40
2018-01-25T06:51:44.786Z,11.40
2018-01-25T06:54:12.261Z,7.43
2018-01-25T06:56:40.488Z,7.30
2018-01-25T06:59:07.953Z,11.07
2018-01-25T07:01:35.445Z,7.07
2018-01-25T07:06:36.785Z,6.90
2018-01-25T07:09:04.245Z,8.20
2018-01-25T07:11:33.267Z,10.50
2018-01-25T07:14:01.493Z,8.50
2018-01-25T07:16:29.074Z,7.13
2018-01-25T07:18:56.535Z,8.90
2018-01-25T07:21:24.006Z,6.80
2018-01-25T07:23:51.491Z,6.83
2018-01-25T07:26:18.951Z,7.27
2018-01-25T07:28:46.457Z,6.93
2018-01-25T07:31:13.930Z,9.60
2018-01-25T07:33:41.395Z,7.40
2018-01-25T07:36:08.908Z,7.50
2018-01-25T07:38:36.716Z,7.33
2018-01-25T07:41:04.199Z,6.97
2018-01-25T07:43:32.421Z,9.80
2018-01-25T07:45:59.961Z,9.17
2018-01-25T07:48:27.428Z,7.90
2018-01-25T07:50:54.901Z,6.37
2018-01-25T07:53:23.122Z,6.90
2018-01-25T07:55:50.591Z,9.20
2018-01-25T08:00:56.802Z,8.13
2018-01-25T08:03:24.271Z,7.83
2018-01-25T08:05:52.509Z,6.80
2018-01-25T08:08:19.988Z,9.60
2018-01-25T08:10:47.450Z,6.13
2018-01-25T08:13:20.684Z,7.10
2018-01-25T08:15:48.913Z,6.20
2018-01-25T08:18:16.384Z,7.10
2018-01-25T08:20:43.861Z,8.90
2018-01-25T08:23:11.339Z,6.17
2018-01-25T08:25:39.571Z,6.47
2018-01-25T08:28:07.046Z,6.07
2018-01-25T08:30:34.510Z,8.43
2018-01-25T08:33:01.992Z,7.40
2018-01-25T08:35:30.239Z,4.87
2018-01-25T08:37:57.736Z,6.53
2018-01-25T08:40:25.971Z,6.43
2018-01-25T08:42:53.437Z,7.37
2018-01-25T08:45:20.906Z,10.57
2018-01-25T08:47:49.151Z,5.83
2018-01-25T08:50:16.620Z,7.73
2018-01-25T08:52:44.089Z,7.60
2018-01-25T08:55:11.552Z,7.20
2018-01-25T08:57:39.014Z,5.10
2018-01-25T09:00:07.243Z,4.80
2018-01-25T09:02:34.722Z,5.63
2018-01-25T09:05:02.224Z,5.13
2018-01-25T09:07:29.811Z,9.67
2018-01-25T09:09:57.447Z,6.63
2018-01-25T09:12:25.021Z,5.23
2018-01-25T09:14:52.520Z,6.00
2018-01-25T09:17:20.075Z,6.27
2018-01-25T09:19:47.599Z,7.03
2018-01-25T09:22:15.134Z,6.93
2018-01-25T09:24:43.464Z,5.60
2018-01-25T09:27:10.982Z,5.83
2018-01-25T09:29:38.505Z,5.50
2018-01-25T09:32:06.104Z,6.50
2018-01-25T09:34:33.584Z,5.33
2018-01-25T09:37:01.255Z,3.67
2018-01-25T09:39:29.209Z,4.03
2018-01-25T09:41:56.874Z,4.03
2018-01-25T09:44:24.413Z,4.63
2018-01-25T09:46:52.006Z,3.40
2018-01-25T09:49:19.934Z,5.90
2018-01-25T09:51:48.251Z,5.33
2018-01-25T09:54:15.922Z,8.80
2018-01-25T09:56:43.486Z,4.43
2018-01-25T09:59:11.105Z,3.63
2018-01-25T10:01:38.617Z,4.03
2018-01-25T10:04:06.120Z,5.47
2018-01-25T10:06:33.664Z,4.60
2018-01-25T10:09:01.960Z,5.00
2018-01-25T10:11:29.438Z,4.87
2018-01-25T10:13:57.002Z,3.90
2018-01-25T10:16:24.488Z,6.17
2018-01-25T10:18:51.999Z,3.37
2018-01-25T10:21:19.469Z,4.47
2018-01-25T10:23:47.025Z,4.83
2018-01-25T10:26:14.539Z,3.90
2018-01-25T10:28:42.021Z,6.60
2018-01-25T10:31:09.545Z,8.27
2018-01-25T10:33:37.039Z,4.50
2018-01-25T10:36:04.543Z,5.07
2018-01-25T10:38:32.020Z,8.00
2018-01-25T10:40:59.495Z,3.53
2018-01-25T10:43:27.734Z,5.30
2018-01-25T10:45:55.255Z,3.90
2018-01-25T10:48:22.740Z,5.27
2018-01-25T10:50:50.229Z,6.80
2018-01-25T10:53:17.700Z,3.83
2018-01-25T10:55:45.935Z,4.33
2018-01-25T10:58:13.581Z,4.37
2018-01-25T11:00:46.736Z,4.33
2018-01-25T11:03:14.237Z,7.10
2018-01-25T11:05:41.833Z,4.13
2018-01-25T11:08:09.370Z,3.67
2018-01-25T11:10:36.863Z,4.50
2018-01-25T11:13:05.126Z,4.40
2018-01-25T11:15:32.626Z,4.80
2018-01-25T11:18:00.114Z,3.30
2018-01-25T11:20:27.596Z,5.30
2018-01-25T11:22:55.111Z,4.33
2018-01-25T11:25:23.026Z,5.10
2018-01-25T11:27:51.070Z,5.57
2018-01-25T11:30:19.737Z,3.87
2018-01-25T11:32:47.264Z,4.90
2018-01-25T11:35:15.650Z,7.43
2018-01-25T11:37:43.331Z,5.93
2018-01-25T11:40:10.780Z,6.93
2018-01-25T11:42:38.252Z,5.20
2018-01-25T11:45:05.722Z,4.77
2018-01-25T11:47:34.221Z,11.33
2018-01-25T11:50:02.962Z,6.13
2018-01-25T11:52:31.075Z,7.50
2018-01-25T11:55:22.074Z,4.47
2018-01-25T11:57:49.558Z,3.73
2018-01-25T12:00:17.091Z,6.20
2018-01-25T12:02:44.561Z,4.63
2018-01-25T12:05:12.064Z,6.77
2018-01-25T12:07:40.499Z,5.80
2018-01-25T12:10:07.969Z,5.13
2018-01-25T12:12:36.088Z,6.03
2018-01-25T12:15:03.060Z,4.13
2018-01-25T12:17:30.622Z,3.47
2018-01-25T12:19:58.091Z,4.23
2018-01-25T12:22:25.575Z,3.90
2018-01-25T12:24:53.064Z,5.53
2018-01-25T12:27:20.543Z,5.67
2018-01-25T12:29:48.011Z,5.37
2018-01-25T12:32:15.492Z,3.60
2018-01-25T12:34:42.996Z,5.87
2018-01-25T12:37:10.469Z,6.10
2018-01-25T12:39:37.932Z,3.90
2018-01-25T12:42:06.091Z,4.20
2018-01-25T12:44:33.645Z,3.20
2018-01-25T12:47:01.166Z,3.53
2018-01-25T12:49:29.830Z,4.73
2018-01-25T12:51:57.906Z,3.13
2018-01-25T12:54:25.383Z,4.50
2018-01-25T12:56:52.839Z,6.13
2018-01-25T12:59:20.316Z,3.80
2018-01-25T13:01:47.789Z,3.67
2018-01-25T13:04:15.251Z,5.50
2018-01-25T13:06:42.819Z,4.73
2018-01-25T13:09:10.305Z,5.20
2018-01-25T13:11:37.762Z,7.07
2018-01-25T13:14:05.239Z,3.47
2018-01-25T13:16:32.696Z,4.00
2018-01-25T13:19:00.172Z,4.67
2018-01-25T13:21:28.403Z,4.80
2018-01-25T13:23:55.904Z,5.03
2018-01-25T13:26:24.137Z,4.67
2018-01-25T13:28:51.611Z,5.40
2018-01-25T13:31:19.070Z,4.50
2018-01-25T13:33:46.544Z,7.07
2018-01-25T13:36:14.008Z,3.57
2018-01-25T13:38:42.262Z,4.30
2018-01-25T13:41:09.753Z,3.80
2018-01-25T13:43:37.991Z,4.57
2018-01-25T13:46:05.457Z,3.63
2018-01-25T13:48:33.088Z,4.60
2018-01-25T13:51:00.468Z,4.70
2018-01-25T13:53:27.942Z,5.07
2018-01-25T13:55:55.423Z,4.90
2018-01-25T13:58:23.686Z,4.47
2018-01-25T14:00:51.164Z,6.10
2018-01-25T14:03:18.620Z,4.23
2018-01-25T14:05:46.111Z,6.03
2018-01-25T14:08:13.575Z,4.30
2018-01-25T14:10:41.047Z,4.27
2018-01-25T14:13:08.519Z,4.87
2018-01-25T14:15:35.991Z,4.47
2018-01-25T14:18:04.220Z,4.40
2018-01-25T14:20:31.696Z,3.80
2018-01-25T14:22:59.164Z,4.20
2018-01-25T14:25:26.658Z,3.77
2018-01-25T14:27:54.120Z,4.67
2018-01-25T14:30:21.603Z,4.60
2018-01-25T14:32:49.075Z,5.60
2018-01-25T14:35:16.560Z,5.90
2018-01-25T14:37:44.031Z,6.70
2018-01-25T14:40:12.272Z,4.60
2018-01-25T14:42:39.734Z,4.10
2018-01-25T14:45:07.334Z,4.43
2018-01-25T14:47:35.565Z,5.30
2018-01-25T14:50:03.040Z,5.90
2018-01-25T14:52:30.506Z,5.73
2018-01-25T14:54:57.977Z,5.83
2018-01-25T14:57:26.228Z,7.23
2018-01-25T14:59:53.699Z,4.90
2018-01-25T15:02:21.169Z,7.43
2018-01-25T15:04:49.393Z,4.13
2018-01-25T15:07:16.859Z,4.43
2018-01-25T15:09:44.354Z,5.70
2018-01-25T15:12:11.791Z,9.33
2018-01-25T15:14:39.273Z,6.27
2018-01-25T15:17:07.512Z,7.60
2018-01-25T15:19:34.979Z,6.03
2018-01-25T15:22:02.447Z,4.87
2018-01-25T15:24:29.916Z,5.80
2018-01-25T15:26:58.163Z,5.70
2018-01-25T15:29:25.614Z,4.80
2018-01-25T15:31:53.083Z,8.40
2018-01-25T15:34:20.551Z,6.00
2018-01-25T15:36:48.015Z,8.50
2018-01-25T15:39:16.246Z,7.70
2018-01-25T15:41:43.715Z,8.27
2018-01-25T15:44:11.179Z,10.83
2018-01-25T15:46:38.664Z,12.13
2018-01-25T15:49:06.120Z,11.80
2018-01-25T15:51:33.599Z,10.10
2018-01-25T15:54:01.830Z,8.47
2018-01-25T15:56:29.304Z,9.50
2018-01-25T15:58:56.763Z,11.90
2018-01-25T16:01:24.239Z,7.20
2018-01-25T16:03:52.477Z,8.27
2018-01-25T16:06:19.937Z,8.33
2018-01-25T16:08:47.428Z,9.10
2018-01-25T16:11:15.677Z,9.00
2018-01-25T16:13:43.143Z,7.80
2018-01-25T16:16:10.615Z,11.43
2018-01-25T16:18:38.853Z,9.53
2018-01-25T16:21:06.317Z,8.17
2018-01-25T16:23:33.795Z,14.50
2018-01-25T16:26:01.265Z,12.17
2018-01-25T16:28:29.534Z,8.90
2018-01-25T16:30:57.344Z,15.17
2018-01-25T16:33:24.825Z,10.67
2018-01-25T16:35:53.052Z,9.60
2018-01-25T16:38:20.523Z,11.07
2018-01-25T16:40:47.977Z,9.83
2018-01-25T16:43:15.491Z,11.03
2018-01-25T16:45:42.938Z,7.93
2018-01-25T16:50:44.719Z,10.30
2018-01-25T16:53:13.553Z,7.93
2018-01-25T16:55:41.031Z,10.30
2018-01-25T16:58:08.507Z,9.67
2018-01-25T17:00:46.962Z,14.73
2018-01-25T17:03:14.899Z,8.07
2018-01-25T17:05:43.213Z,9.90
2018-01-25T17:08:10.796Z,6.83
2018-01-25T17:10:38.342Z,6.70
2018-01-25T17:13:06.703Z,7.97
2018-01-25T17:15:34.290Z,6.07
2018-01-25T17:18:01.879Z,6.63
2018-01-25T17:20:29.436Z,9.20
2018-01-25T17:22:56.958Z,7.50
2018-01-25T17:25:25.314Z,7.60
2018-01-25T17:27:52.920Z,5.37
2018-01-25T17:30:20.557Z,7.10
2018-01-25T17:32:48.357Z,9.90
2018-01-25T17:35:16.808Z,6.50
2018-01-25T17:37:44.344Z,9.67
2018-01-25T17:40:11.891Z,6.83
2018-01-25T17:42:39.410Z,9.20
2018-01-25T17:45:06.918Z,8.60
2018-01-25T17:47:34.445Z,8.10
2018-01-25T17:50:02.759Z,11.37
2018-01-25T17:52:30.408Z,13.10
2018-01-25T17:54:57.978Z,9.53
2018-01-25T17:57:25.573Z,9.80
2018-01-25T17:59:53.196Z,11.20
2018-01-25T18:02:20.723Z,12.60
2018-01-25T18:04:48.330Z,12.53
2018-01-25T18:07:15.954Z,6.10
2018-01-25T18:09:43.515Z,9.20
2018-01-25T18:12:11.137Z,9.33
2018-01-25T18:14:38.774Z,9.40
2018-01-25T18:17:06.368Z,8.87
2018-01-25T18:19:33.857Z,10.37
2018-01-25T18:22:02.209Z,6.77
2018-01-25T18:24:29.699Z,8.33
2018-01-25T18:26:57.931Z,9.47
2018-01-25T18:29:25.390Z,7.30
2018-01-25T18:31:52.844Z,10.17
2018-01-25T18:34:21.210Z,11.70
2018-01-25T18:36:48.658Z,9.77
2018-01-25T18:39:16.156Z,8.40
2018-01-25T18:41:43.618Z,13.77
2018-01-25T18:44:11.127Z,8.67
2018-01-25T18:46:38.649Z,11.93
2018-01-25T18:49:06.149Z,11.80
2018-01-25T18:51:33.662Z,12.27
2018-01-25T18:54:01.195Z,9.60
2018-01-25T18:56:28.657Z,13.03
2018-01-25T18:58:56.106Z,14.00
2018-01-25T19:01:23.631Z,11.57
2018-01-25T19:03:51.130Z,13.83
2018-01-25T19:06:18.596Z,13.90
2018-01-25T19:08:46.062Z,11.77
2018-01-25T19:11:13.586Z,10.23
2018-01-25T19:13:41.039Z,12.63
2018-01-25T19:16:08.583Z,13.23
2018-01-25T19:18:36.048Z,15.93
2018-01-25T19:21:03.541Z,13.43
2018-01-25T19:23:30.991Z,10.67
2018-01-25T19:25:59.225Z,12.27
2018-01-25T19:28:26.754Z,14.80
2018-01-25T19:30:54.308Z,11.30
2018-01-25T19:33:21.798Z,12.07
2018-01-25T19:35:49.261Z,10.43
2018-01-25T19:38:16.775Z,11.73
2018-01-25T19:40:44.289Z,13.33
2018-01-25T19:43:11.790Z,7.53
2018-01-25T19:45:39.300Z,9.40
2018-01-25T19:48:06.796Z,14.17
2018-01-25T19:50:34.364Z,10.70
2018-01-25T19:53:01.870Z,7.80
2018-01-25T19:55:29.381Z,7.67
2018-01-25T19:57:56.995Z,9.60
2018-01-25T20:00:24.450Z,8.93
2018-01-25T20:02:51.972Z,7.87
2018-01-25T20:05:19.429Z,7.27
2018-01-25T20:07:46.945Z,11.83
2018-01-25T20:10:14.472Z,10.33
2018-01-25T20:12:42.022Z,13.87
2018-01-25T20:15:10.305Z,18.03
2018-01-25T20:17:38.539Z,12.90
2018-01-25T20:20:06.047Z,11.63
2018-01-25T20:22:33.569Z,15.13
2018-01-25T20:25:01.030Z,16.33
2018-01-25T20:27:28.499Z,12.00
2018-01-25T20:29:56.775Z,13.67
2018-01-25T20:32:25.005Z,11.47
2018-01-25T20:34:52.575Z,12.57
2018-01-25T20:37:20.087Z,11.53
2018-01-25T20:39:48.350Z,11.47
2018-01-25T20:42:16.632Z,9.47
2018-01-25T20:44:44.165Z,13.07
2018-01-25T20:47:11.705Z,10.37
2018-01-25T20:49:39.216Z,8.03
2018-01-25T20:52:07.653Z,12.47
2018-01-25T20:54:35.256Z,11.40
2018-01-25T20:57:03.552Z,13.13
2018-01-25T20:59:31.123Z,11.10
2018-01-25T21:01:58.640Z,13.70
2018-01-25T21:04:26.107Z,11.13
2018-01-25T21:06:54.435Z,14.57
2018-01-25T21:09:22.089Z,12.33
2018-01-25T21:11:49.660Z,12.77
2018-01-25T21:14:17.267Z,11.13
2018-01-25T21:16:44.887Z,10.03
2018-01-25T21:19:12.569Z,10.13
2018-01-25T21:21:41.013Z,12.40
2018-01-25T21:24:08.542Z,13.47
2018-01-25T21:26:36.114Z,14.80
2018-01-25T21:29:03.721Z,18.17
2018-01-25T21:31:31.410Z,18.10
2018-01-25T21:33:58.959Z,16.50
2018-01-25T21:36:26.581Z,14.67
2018-01-25T21:38:54.142Z,13.07
2018-01-25T21:41:22.504Z,18.03
2018-01-25T21:43:50.096Z,12.67
2018-01-25T21:46:17.684Z,11.67
2018-01-25T21:48:46.072Z,14.10
2018-01-25T21:51:14.428Z,14.10
2018-01-25T21:53:41.959Z,10.63
2018-01-25T21:56:09.467Z,11.60
2018-01-25T21:58:37.807Z,11.73
2018-01-25T22:01:05.371Z,14.70
2018-01-25T22:03:32.907Z,14.10
2018-01-25T22:06:00.476Z,12.00
2018-01-25T22:08:28.058Z,14.30
2018-01-25T22:10:55.572Z,13.57
2018-01-25T22:13:23.130Z,12.30
2018-01-25T22:15:50.736Z,13.53
2018-01-25T22:18:18.240Z,12.03
2018-01-25T22:20:45.769Z,10.17
2018-01-25T22:23:13.268Z,12.23
2018-01-25T22:25:40.846Z,11.30
2018-01-25T22:28:08.421Z,12.73
2018-01-25T22:30:35.996Z,13.67
2018-01-25T22:35:37.525Z,10.13
2018-01-25T22:38:05.089Z,11.90
2018-01-25T22:40:32.591Z,9.73
2018-01-25T22:43:00.074Z,13.53
2018-01-25T22:45:27.567Z,11.27
2018-01-25T22:47:55.116Z,16.33
2018-01-25T22:50:22.630Z,10.60
2018-01-25T22:52:50.184Z,11.33
2018-01-25T22:55:17.733Z,13.20
2018-01-25T22:57:45.279Z,9.10
2018-01-25T23:00:12.775Z,9.73
2018-01-25T23:02:40.272Z,6.90
2018-01-25T23:05:07.787Z,8.17
2018-01-25T23:07:36.063Z,12.83
2018-01-25T23:10:03.604Z,7.67
2018-01-25T23:12:31.089Z,9.77
2018-01-25T23:14:58.622Z,14.93
2018-01-25T23:17:26.155Z,10.90
2018-01-25T23:19:53.642Z,8.93
2018-01-25T23:22:21.118Z,8.50
2018-01-25T23:24:48.615Z,9.13
2018-01-25T23:27:16.149Z,6.83
2018-01-25T23:29:43.642Z,7.50
2018-01-25T23:32:11.133Z,8.30
2018-01-25T23:34:38.774Z,10.40
2018-01-25T23:37:07.024Z,6.60
2018-01-25T23:39:34.601Z,8.23
2018-01-25T23:42:02.075Z,8.23
2018-01-25T23:44:29.617Z,8.63
2018-01-25T23:46:57.106Z,8.40
2018-01-25T23:49:24.564Z,9.57
2018-01-25T23:51:52.038Z,8.30
2018-01-25T23:54:20.276Z,6.77
2018-01-25T23:56:47.768Z,7.60
2018-01-25T23:59:15.244Z,5.80
